• Join FlightAware (Why Join?)
  • Login
  • US Flag 
11:25PM EDT


 

Airport Tracker/Info


-or-


 

Live Flight TrackerFlight Track Log ✈ USC105 ✈ 03-Jul-2013 ✈ KBKL - KYIP

Flight Track Log - Related Links

Times and Time Zones

All times are in EDT time to prevent confusion due to time zone crossing. See the USC105 flight status page for this flight to view local times or setup timezone preferences in your user account.

Time Position Orientation Groundspeed Altitude Reporting Facility
EDT Latitude Longitude Course Direction KTS MPH feet Rate Location/Type
11:17PM 41.5331 -81.7258 311° West 133 153 1,700  Level Cleveland Center
11:18PM 41.5600 -81.7625 314° West 129 148 3,200 1,200 Climbing Cleveland Center
11:19PM 41.5783 -81.8044 300° West 125 144 4,300 1,140 Climbing Cleveland Center
11:20PM 41.5903 -81.8492 290° West 129 148 5,500 1,080 Climbing Cleveland Center
11:21PM 41.6083 -81.8967 297° West 128 147 6,700 1,080 Climbing Cleveland Center
11:22PM 41.6225 -81.9414 293° West 130 150 7,900 660 Climbing Cleveland Center
11:23PM 41.6406 -81.9972 293° West 177 204 8,100 60 Climbing Cleveland Center
11:24PM 41.6586 -82.0589 291° West 178 205 8,100  Level Cleveland Center
11:25PM 41.6808 -82.1206 296° West 188 216 8,100  Level Cleveland Center
11:26PM 41.7028 -82.1906 293° West 196 226 8,100  Level Cleveland Center
11:28PM 41.7286 -82.2692 294° West 194 223 8,100  Level Cleveland Center
11:28PM 41.7467 -82.3281 292° West 191 220 8,100 -60 Level Cleveland Center
11:29PM 41.7664 -82.3956 291° West 192 221 8,000 -60 Descending Cleveland Center
11:31PM 41.7964 -82.4800 296° West 192 221 8,000  Level Cleveland Center
11:32PM 41.8200 -82.5503 294° West 191 220 8,000 -60 Level Cleveland Center
11:33PM 41.8397 -82.6122 293° West 192 221 7,900  Descending Cleveland Center
11:34PM 41.8892 -82.6528 329° Northwest 211 243 8,000  Climbing Cleveland Center
11:35PM 41.9342 -82.6961 324° Northwest 201 231 7,900  Descending Cleveland Center
11:36PM 41.9769 -82.7533 315° West 203 234 8,000  Climbing Cleveland Center
11:37PM 42.0114 -82.8022 313° West 204 235 7,900 -300 Descending Cleveland Center
11:38PM 42.0481 -82.8508 315° West 208 239 7,500 -540 Descending Cleveland Center
11:39PM 42.1089 -82.9369 314° West 219 252 6,700 -660 Descending Cleveland Center
11:40PM 42.1328 -82.9856 304° West 216 249 6,200 -840 Descending Cleveland Center
11:41PM 42.1608 -83.0456 302° West 214 246 5,400 -600 Descending Cleveland Center
11:42PM 42.2028 -83.1311 304° West 208 239 4,900 -240 Descending Cleveland Center
11:43PM 42.2244 -83.1769 303° West 191 220 4,900  Level Cleveland Center
11:44PM 42.2506 -83.2314 303° West 183 211 4,900 -480 Level Cleveland Center
11:45PM 42.2697 -83.2939 293° West 198 228 4,100 -1,080 Descending Cleveland Center
11:46PM 42.2869 -83.3619 289° West 194 223 2,900 -1,020 Descending Cleveland Center
11:47PM 42.3061 -83.4358 289° West 169 194 1,900 -600 Descending Cleveland Center
11:48PM 42.2778 -83.4822 230° Southwest 128 147 1,600 -480 Descending Cleveland Center
11:49PM 42.2539 -83.5119 223° Southwest 118 136 1,000 -600 Descending Cleveland Center
11:51PM 42.2333 -83.5167 270° West  Level FlightAware Approximate
11:58PM 42.2393 -83.5310 270° West  Level Estimated